Forside
METAR-TAF:

METAR-TAF

Lufthavne :

Yellowknife, Northwest Territories, Canada

Breddekreds: 62-28N, længdekreds: 114-27W, højde: 205 m

Aktuelle vejr

Denne rapport blev lavet for 40 minutter siden, kl. 17:00 UTC
Vind 10 kt fra nordvest
Temperatur -29°C
Fugtighed 68%
Tryk 1036 hPa
Sigt: 24.1 km
Nogle få skyer i en højde af 24000 ft

METAR: CYZF 231700Z 32010KT 15SM FEW240 M29/M33 A3060 RMK CI1 CI TR SLP397

Tid: 10:40 (17:40 UTC)

Vejrudsigter

Denne rapport blev lavet for 6 timer og 2 minutter siden, kl. 11:38 UTC
Foreløbig gælder fra 23 på 12 UTC til 24 på 12 UTC
Vind 8 kt fra nordnordvest
Sigt: 10 km
skyfri
ændring
fra 24 på 02 UTC til 24 på 04 UTC
Vind 3 kt fra varierende retninger

TAF: CYZF 231138Z 2312/2412 33008KT P6SM SKC BECMG 2402/2404 VRB03KT RMK NXT FCST BY 231800Z

Vejrobservationer og prognoser fra mere end 4000 lufthavne (METAR og TAF).

De gule og røde prikker repræsenterer de meteorologiske stationer.

Flyt musen over at se navnet på stationen.

Så klik over at se vejr observationer og prognoser.

At skifte det kort: Klik på de grønne knapper med et sort kors for at zoome ind; på den grønne knap med en bindestreg for at zoome ud; eller på de grønne pile for tilstødende kort.


METAR-TAF: